Time;durP1;ratioP1;P1;durP2;ratioP2;P2;SDS_P1;SDS_P2;PMS_P1;PMS_P2;Temp;Humidity;BMP_temperature;BMP_pressure;BME280_temperature;BME280_humidity;BME280_pressure;Samples;Min_cycle;Max_cycle;Signal;HPM_P1;HPM_P2
2024/04/14 00:01:36;;;;;;;;;;;;;;;;;;5495273;25;20336;-64
2024/04/14 00:04:01;;;;;;;;;;;;;;;;;;5477898;25;20002;-66
2024/04/14 00:06:29;;;;;;;;;;;;;;;;;;5488774;25;19944;-67
2024/04/14 00:08:54;;;;;;;;;;;;;;;;;;5479614;25;19942;-67
2024/04/14 00:11:19;;;;;;;;;;;;;;;;;;5486602;25;19943;-67
2024/04/14 00:16:36;;;;;;;;;;;;;;;;;;5486460;25;19935;-70
2024/04/14 00:19:04;;;;;;;;;;;;;;;;;;5482155;25;19927;-66
2024/04/14 00:24:47;;;;;;;;;;;;;;;;;;5484899;25;20007;-65
2024/04/14 00:27:14;;;;;;;;;;;;;;;;;;5486303;25;19939;-67
2024/04/14 00:29:45;;;;;;;;;;;;;;;;;;5484684;25;19936;-67
2024/04/14 00:32:11;;;;;;;;;;;;;;;;;;5481675;25;19936;-68
2024/04/14 00:34:36;;;;;;;;;;;;;;;;;;5484316;25;19935;-67
2024/04/14 00:37:04;;;;;;;;;;;;;;;;;;5481189;25;19932;-69
2024/04/14 00:39:29;;;;;;;;;;;;;;;;;;5484330;25;20444;-66
2024/04/14 00:41:58;;;;;;;;;;;;;;;;;;5486310;25;19990;-67
2024/04/14 00:44:23;;;;;;;;;;;;;;;;;;5479431;25;19936;-66
2024/04/14 00:46:51;;;;;;;;;;;;;;;;;;5481436;25;21115;-67
2024/04/14 00:49:16;;;;;;;;;;;;;;;;;;5486032;25;19946;-70
2024/04/14 00:51:46;;;;;;;;;;;;;;;;;;5461360;25;20334;-66
2024/04/14 00:54:17;;;;;;;;;;;;;;;;;;5481247;25;19928;-67
2024/04/14 00:56:42;;;;;;;;;;;;;;;;;;5483999;25;20396;-67
2024/04/14 00:59:08;;;;;;;;;;;;;;;;;;5484800;25;19964;-67
2024/04/14 01:01:33;;;;;;;;;;;;;;;;;;5488915;25;19946;-67
2024/04/14 01:03:58;;;;;;;;;;;;;;;;;;5485232;25;19992;-68
2024/04/14 01:06:24;;;;;;;;;;;;;;;;;;5487218;25;19932;-66
2024/04/14 01:08:52;;;;;;;;;;;;;;;;;;5479701;25;20657;-66
2024/04/14 01:11:20;;;;;;;;;;;;;;;;;;5485736;25;19935;-67
2024/04/14 01:13:47;;;;;;;;;;;;;;;;;;5486109;25;22522;-67
2024/04/14 01:16:13;;;;;;;;;;;;;;;;;;5506564;25;19935;-67
2024/04/14 01:18:38;;;;;;;;;;;;;;;;;;5480536;25;20004;-67
2024/04/14 01:21:06;;;;;;;;;;;;;;;;;;5481309;25;20352;-68
2024/04/14 01:23:34;;;;;;;;;;;;;;;;;;5482108;25;19928;-69
2024/04/14 01:26:00;;;;;;;;;;;;;;;;;;5483502;25;20269;-66
2024/04/14 01:28:25;;;;;;;;;;;;;;;;;;5483709;25;19931;-65
2024/04/14 01:30:52;;;;;;;;;;;;;;;;;;5481990;25;19928;-67
2024/04/14 01:33:18;;;;;;;;;;;;;;;;;;5479676;25;20156;-67
2024/04/14 01:35:43;;;;;;;;;;;;;;;;;;5484289;25;20424;-68
2024/04/14 01:38:09;;;;;;;;;;;;;;;;;;5485377;25;19943;-66
2024/04/14 01:40:34;;;;;;;;;;;;;;;;;;5454667;25;19935;-66
2024/04/14 01:42:59;;;;;;;;;;;;;;;;;;5484078;25;20013;-67
2024/04/14 01:45:24;;;;;;;;;;;;;;;;;;5483531;25;19943;-68
2024/04/14 01:47:54;;;;;;;;;;;;;;;;;;5483669;25;20268;-66
2024/04/14 01:50:23;;;;;;;;;;;;;;;;;;5481354;25;19951;-67
2024/04/14 01:56:07;;;;;;;;;;;;;;;;;;5481644;25;19971;-67
2024/04/14 01:58:35;;;;;;;;;;;;;;;;;;5481977;25;19928;-66
2024/04/14 02:01:00;;;;;;;;;;;;;;;;;;5482300;25;19942;-65
2024/04/14 02:03:25;;;;;;;;;;;;;;;;;;5499239;25;19934;-68
2024/04/14 02:05:50;;;;;;;;;;;;;;;;;;5521149;25;19946;-68
2024/04/14 02:08:16;;;;;;;;;;;;;;;;;;5489554;25;20359;-66
2024/04/14 02:10:43;;;;;;;;;;;;;;;;;;5492718;25;19935;-65
2024/04/14 02:13:09;;;;;;;;;;;;;;;;;;5462500;25;20352;-69
2024/04/14 02:18:50;;;;;;;;;;;;;;;;;;5518485;25;20491;-69
2024/04/14 02:21:18;;;;;;;;;;;;;;;;;;5521392;25;20503;-66
2024/04/14 02:23:45;;;;;;;;;;;;;;;;;;5520551;25;19946;-66
2024/04/14 02:26:13;;;;;;;;;;;;;;;;;;5519840;25;19934;-65
2024/04/14 02:28:41;;;;;;;;;;;;;;;;;;5484584;25;19935;-67
2024/04/14 02:31:06;;;;;;;;;;;;;;;;;;5518863;25;19943;-68
2024/04/14 02:33:31;;;;;;;;;;;;;;;;;;5487774;25;20215;-68
2024/04/14 02:35:57;;;;;;;;;;;;;;;;;;5517612;25;22462;-67
2024/04/14 02:38:25;;;;;;;;;;;;;;;;;;5488532;25;19942;-66
2024/04/14 02:40:50;;;;;;;;;;;;;;;;;;5488105;25;20386;-68
2024/04/14 02:43:18;;;;;;;;;;;;;;;;;;5493430;25;20805;-68
2024/04/14 02:45:46;;;;;;;;;;;;;;;;;;5496968;25;19991;-65
2024/04/14 02:48:14;;;;;;;;;;;;;;;;;;5489940;25;19950;-66
2024/04/14 02:50:39;;;;;;;;;;;;;;;;;;5465764;25;20087;-66
2024/04/14 02:53:07;;;;;;;;;;;;;;;;;;5497116;25;22085;-68
2024/04/14 02:55:32;;;;;;;;;;;;;;;;;;5524474;25;20429;-69
2024/04/14 02:58:01;;;;;;;;;;;;;;;;;;5523855;25;19931;-67
2024/04/14 03:00:27;;;;;;;;;;;;;;;;;;5493792;25;19927;-66
2024/04/14 03:02:52;;;;;;;;;;;;;;;;;;5470761;25;19941;-68
2024/04/14 03:05:20;;;;;;;;;;;;;;;;;;5488837;25;19934;-67
2024/04/14 03:07:45;;;;;;;;;;;;;;;;;;5492734;25;19934;-67
2024/04/14 03:13:27;;;;;;;;;;;;;;;;;;5522685;25;19988;-68
2024/04/14 03:15:52;;;;;;;;;;;;;;;;;;5489283;25;19934;-68
2024/04/14 03:18:17;;;;;;;;;;;;;;;;;;5521626;25;19963;-67
2024/04/14 03:20:45;;;;;;;;;;;;;;;;;;5519243;25;19935;-68
2024/04/14 03:23:10;;;;;;;;;;;;;;;;;;5522096;25;20014;-67
2024/04/14 03:25:36;;;;;;;;;;;;;;;;;;5488591;25;20031;-67
2024/04/14 03:28:03;;;;;;;;;;;;;;;;;;5522634;25;20658;-67
2024/04/14 03:30:34;;;;;;;;;;;;;;;;;;5495487;25;19927;-67
2024/04/14 03:32:59;;;;;;;;;;;;;;;;;;5520390;25;19941;-67
2024/04/14 03:35:26;;;;;;;;;;;;;;;;;;5463707;25;20444;-67
2024/04/14 03:37:54;;;;;;;;;;;;;;;;;;5462392;25;19930;-67
2024/04/14 03:40:21;;;;;;;;;;;;;;;;;;5466240;25;19976;-67
2024/04/14 03:42:46;;;;;;;;;;;;;;;;;;5471189;25;19935;-67
2024/04/14 03:45:11;;;;;;;;;;;;;;;;;;5490069;25;20321;-67
2024/04/14 03:47:39;;;;;;;;;;;;;;;;;;5522430;25;19955;-66
2024/04/14 03:50:07;;;;;;;;;;;;;;;;;;5492811;25;20027;-66
2024/04/14 03:52:35;;;;;;;;;;;;;;;;;;5490394;25;19941;-68
2024/04/14 03:55:04;;;;;;;;;;;;;;;;;;5495188;25;19935;-67
2024/04/14 03:57:32;;;;;;;;;;;;;;;;;;5468472;25;19928;-67
2024/04/14 04:06:30;;;;;;;;;;;;;;;;;;5522423;25;19994;-67
2024/04/14 04:08:58;;;;;;;;;;;;;;;;;;5466799;25;20285;-67
2024/04/14 04:11:23;;;;;;;;;;;;;;;;;;5489217;25;19935;-65
2024/04/14 04:13:49;;;;;;;;;;;;;;;;;;5519850;25;19934;-66
2024/04/14 04:16:14;;;;;;;;;;;;;;;;;;5523503;25;19934;-66
2024/04/14 04:18:39;;;;;;;;;;;;;;;;;;5491417;25;19950;-66
2024/04/14 04:24:23;;;;;;;;;;;;;;;;;;5521736;25;19938;-67
2024/04/14 04:26:54;;;;;;;;;;;;;;;;;;5522223;25;19934;-67
2024/04/14 04:29:19;;;;;;;;;;;;;;;;;;5491563;25;19959;-67
2024/04/14 04:37:55;;;;;;;;;;;;;;;;;;5518438;25;19934;-67
2024/04/14 04:40:23;;;;;;;;;;;;;;;;;;5523470;25;19935;-67
2024/04/14 04:42:48;;;;;;;;;;;;;;;;;;5467064;25;19927;-68
2024/04/14 04:45:16;;;;;;;;;;;;;;;;;;5518961;25;19934;-67
2024/04/14 04:47:41;;;;;;;;;;;;;;;;;;5493697;25;19942;-68
2024/04/14 04:50:06;;;;;;;;;;;;;;;;;;5489398;25;19934;-67
2024/04/14 04:52:34;;;;;;;;;;;;;;;;;;5520964;25;19927;-67
2024/04/14 04:55:00;;;;;;;;;;;;;;;;;;5488970;25;20002;-66
2024/04/14 04:57:27;;;;;;;;;;;;;;;;;;5520788;25;19946;-67
2024/04/14 04:59:58;;;;;;;;;;;;;;;;;;5497228;25;20435;-66
2024/04/14 05:02:26;;;;;;;;;;;;;;;;;;5494054;25;20022;-67
2024/04/14 05:04:54;;;;;;;;;;;;;;;;;;5489959;25;19939;-67
2024/04/14 05:07:22;;;;;;;;;;;;;;;;;;5520429;25;19931;-67
2024/04/14 05:09:47;;;;;;;;;;;;;;;;;;5488901;25;20003;-67
2024/04/14 05:12:12;;;;;;;;;;;;;;;;;;5522641;25;19942;-67
2024/04/14 05:14:40;;;;;;;;;;;;;;;;;;5520352;25;19934;-66
2024/04/14 05:17:08;;;;;;;;;;;;;;;;;;5523662;25;20021;-66
2024/04/14 05:19:36;;;;;;;;;;;;;;;;;;5489663;25;20014;-67
2024/04/14 05:22:01;;;;;;;;;;;;;;;;;;5468860;25;20386;-67
2024/04/14 05:24:29;;;;;;;;;;;;;;;;;;5520535;25;19938;-67
2024/04/14 05:26:58;;;;;;;;;;;;;;;;;;5520826;25;19939;-67
2024/04/14 05:29:25;;;;;;;;;;;;;;;;;;5518897;25;19938;-67
2024/04/14 05:31:51;;;;;;;;;;;;;;;;;;5495181;25;20354;-67
2024/04/14 05:34:16;;;;;;;;;;;;;;;;;;5520016;25;19935;-67
2024/04/14 05:36:41;;;;;;;;;;;;;;;;;;5520970;25;19931;-67
2024/04/14 05:39:06;;;;;;;;;;;;;;;;;;5493474;25;19941;-67
2024/04/14 05:41:37;;;;;;;;;;;;;;;;;;5519535;25;19934;-67
2024/04/14 05:44:02;;;;;;;;;;;;;;;;;;5488554;25;19928;-67
2024/04/14 05:46:27;;;;;;;;;;;;;;;;;;5465383;25;19942;-67
2024/04/14 05:48:55;;;;;;;;;;;;;;;;;;5520407;25;19935;-68
2024/04/14 05:51:23;;;;;;;;;;;;;;;;;;5521342;25;19939;-67
2024/04/14 05:53:48;;;;;;;;;;;;;;;;;;5494183;25;20524;-66
2024/04/14 05:56:14;;;;;;;;;;;;;;;;;;5492141;25;19926;-66
2024/04/14 05:58:41;;;;;;;;;;;;;;;;;;5521409;25;20019;-67
2024/04/14 06:01:09;;;;;;;;;;;;;;;;;;5489123;25;19983;-66
2024/04/14 06:03:34;;;;;;;;;;;;;;;;;;5490855;25;20050;-66
2024/04/14 06:06:00;;;;;;;;;;;;;;;;;;5464840;25;19935;-66
2024/04/14 06:08:25;;;;;;;;;;;;;;;;;;5520649;25;19928;-65
2024/04/14 06:10:50;;;;;;;;;;;;;;;;;;5519567;25;19941;-66
2024/04/14 06:13:15;;;;;;;;;;;;;;;;;;5493205;25;19934;-68
2024/04/14 06:15:43;;;;;;;;;;;;;;;;;;5518099;25;19967;-67
2024/04/14 06:18:08;;;;;;;;;;;;;;;;;;5465436;25;19942;-67
2024/04/14 06:20:36;;;;;;;;;;;;;;;;;;5489238;25;20440;-67
2024/04/14 06:23:01;;;;;;;;;;;;;;;;;;5516328;25;19945;-67
2024/04/14 06:25:29;;;;;;;;;;;;;;;;;;5487676;25;20484;-67
2024/04/14 06:27:54;;;;;;;;;;;;;;;;;;5518556;25;19938;-67
2024/04/14 06:30:19;;;;;;;;;;;;;;;;;;5485531;25;20523;-68
2024/04/14 06:32:47;;;;;;;;;;;;;;;;;;5484069;25;20244;-67
2024/04/14 06:35:13;;;;;;;;;;;;;;;;;;5517134;25;19934;-66
2024/04/14 06:37:38;;;;;;;;;;;;;;;;;;5517314;25;20447;-66
2024/04/14 06:40:03;;;;;;;;;;;;;;;;;;5516479;25;19931;-68
2024/04/14 06:42:33;;;;;;;;;;;;;;;;;;5489237;25;19927;-67
2024/04/14 06:45:01;;;;;;;;;;;;;;;;;;5515317;25;19935;-66
2024/04/14 06:47:29;;;;;;;;;;;;;;;;;;5488992;25;19934;-68
2024/04/14 06:49:54;;;;;;;;;;;;;;;;;;5462983;25;19955;-68
2024/04/14 06:52:19;;;;;;;;;;;;;;;;;;5488068;25;19939;-68
2024/04/14 06:54:44;;;;;;;;;;;;;;;;;;5517198;25;20247;-66
2024/04/14 06:57:12;;;;;;;;;;;;;;;;;;5516635;25;19927;-67
2024/04/14 06:59:38;;;;;;;;;;;;;;;;;;5512725;25;22180;-67
2024/04/14 07:02:03;;;;;;;;;;;;;;;;;;5517386;25;19934;-68
2024/04/14 07:04:28;;;;;;;;;;;;;;;;;;5488099;25;20361;-70
2024/04/14 07:06:56;;;;;;;;;;;;;;;;;;5516944;25;20043;-69
2024/04/14 07:09:23;;;;;;;;;;;;;;;;;;5488291;25;19935;-68
2024/04/14 07:11:51;;;;;;;;;;;;;;;;;;5468599;25;19991;-66
2024/04/14 07:14:16;;;;;;;;;;;;;;;;;;5488080;25;19942;-68
2024/04/14 07:16:42;;;;;;;;;;;;;;;;;;5484023;25;19947;-69
2024/04/14 07:19:07;;;;;;;;;;;;;;;;;;5517134;25;19934;-69
2024/04/14 07:21:32;;;;;;;;;;;;;;;;;;5496354;25;19942;-68
2024/04/14 07:24:00;;;;;;;;;;;;;;;;;;5467909;25;19935;-70
2024/04/14 07:26:26;;;;;;;;;;;;;;;;;;5491002;25;20304;-66
2024/04/14 07:28:51;;;;;;;;;;;;;;;;;;5518573;25;19945;-66
2024/04/14 07:31:16;;;;;;;;;;;;;;;;;;5520926;25;19942;-69
2024/04/14 07:33:42;;;;;;;;;;;;;;;;;;5493001;25;19934;-68
2024/04/14 07:36:08;;;;;;;;;;;;;;;;;;5469191;25;19941;-66
2024/04/14 07:38:35;;;;;;;;;;;;;;;;;;5498506;25;19936;-67
2024/04/14 07:41:03;;;;;;;;;;;;;;;;;;5467495;25;19957;-67
2024/04/14 07:43:31;;;;;;;;;;;;;;;;;;5489409;25;20775;-68
2024/04/14 07:45:56;;;;;;;;;;;;;;;;;;5489662;25;19938;-67
2024/04/14 07:48:21;;;;;;;;;;;;;;;;;;5496838;25;19927;-70
2024/04/14 07:50:46;;;;;;;;;;;;;;;;;;5490113;25;19932;-67
2024/04/14 07:53:12;;;;;;;;;;;;;;;;;;5519878;25;19964;-68
2024/04/14 07:55:39;;;;;;;;;;;;;;;;;;5488783;25;19927;-67
2024/04/14 07:58:05;;;;;;;;;;;;;;;;;;5493993;25;19938;-69
2024/04/14 08:00:32;;;;;;;;;;;;;;;;;;5460811;25;19959;-70
2024/04/14 08:02:58;;;;;;;;;;;;;;;;;;5520139;25;19935;-68
2024/04/14 08:05:26;;;;;;;;;;;;;;;;;;5519079;25;19994;-69
2024/04/14 08:07:51;;;;;;;;;;;;;;;;;;5521432;25;19978;-70
2024/04/14 08:10:16;;;;;;;;;;;;;;;;;;5485338;25;20032;-65
2024/04/14 08:12:44;;;;;;;;;;;;;;;;;;5519556;25;19942;-66
2024/04/14 08:15:09;;;;;;;;;;;;;;;;;;5486156;25;19927;-69
2024/04/14 08:17:37;;;;;;;;;;;;;;;;;;5492580;25;20254;-68
2024/04/14 08:20:04;;;;;;;;;;;;;;;;;;5491345;25;19935;-71
2024/04/14 08:22:30;;;;;;;;;;;;;;;;;;5518481;25;19935;-69
2024/04/14 08:24:55;;;;;;;;;;;;;;;;;;5519667;25;19927;-68
2024/04/14 08:27:20;;;;;;;;;;;;;;;;;;5519674;25;20535;-69
2024/04/14 08:29:49;;;;;;;;;;;;;;;;;;5491619;25;19991;-71
2024/04/14 08:32:14;;;;;;;;;;;;;;;;;;5518964;25;19963;-69
2024/04/14 08:34:42;;;;;;;;;;;;;;;;;;5492786;25;19942;-70
2024/04/14 08:37:10;;;;;;;;;;;;;;;;;;5489580;25;19934;-69
2024/04/14 08:39:38;;;;;;;;;;;;;;;;;;5515054;25;19947;-70
2024/04/14 08:42:05;;;;;;;;;;;;;;;;;;5491211;25;20845;-68
2024/04/14 08:44:33;;;;;;;;;;;;;;;;;;5491976;25;20026;-70
2024/04/14 08:47:01;;;;;;;;;;;;;;;;;;5517982;25;19928;-72
2024/04/14 08:49:26;;;;;;;;;;;;;;;;;;5518698;25;20654;-69
2024/04/14 08:51:53;;;;;;;;;;;;;;;;;;5490187;25;19931;-67
2024/04/14 08:54:18;;;;;;;;;;;;;;;;;;5491556;25;20353;-69
2024/04/14 08:56:43;;;;;;;;;;;;;;;;;;5518886;25;20285;-71
2024/04/14 08:59:08;;;;;;;;;;;;;;;;;;5485777;25;19931;-70
2024/04/14 09:01:34;;;;;;;;;;;;;;;;;;5519495;25;19927;-69
2024/04/14 09:04:04;;;;;;;;;;;;;;;;;;5497055;25;19939;-68
2024/04/14 09:06:32;;;;;;;;;;;;;;;;;;5490815;25;19926;-71
2024/04/14 09:08:57;;;;;;;;;;;;;;;;;;5489605;25;20493;-68
2024/04/14 09:11:23;;;;;;;;;;;;;;;;;;5487231;25;19931;-70
2024/04/14 09:13:50;;;;;;;;;;;;;;;;;;5467455;25;19934;-70
2024/04/14 09:16:18;;;;;;;;;;;;;;;;;;5519179;25;22273;-74
2024/04/14 09:18:43;;;;;;;;;;;;;;;;;;5518119;25;20423;-74
2024/04/14 09:21:09;;;;;;;;;;;;;;;;;;5490926;25;19942;-75
2024/04/14 09:23:34;;;;;;;;;;;;;;;;;;5465756;25;20133;-75
2024/04/14 09:26:04;;;;;;;;;;;;;;;;;;5467503;25;20282;-69
2024/04/14 09:28:29;;;;;;;;;;;;;;;;;;5490400;25;20383;-69
2024/04/14 09:30:55;;;;;;;;;;;;;;;;;;5516002;25;20264;-72
2024/04/14 09:33:23;;;;;;;;;;;;;;;;;;5490670;25;20259;-70
2024/04/14 09:35:49;;;;;;;;;;;;;;;;;;5489414;25;19938;-76
2024/04/14 09:38:16;;;;;;;;;;;;;;;;;;5518329;25;19994;-74
2024/04/14 09:40:42;;;;;;;;;;;;;;;;;;5471652;25;19934;-72
2024/04/14 09:43:08;;;;;;;;;;;;;;;;;;5486969;25;19927;-69
2024/04/14 09:45:36;;;;;;;;;;;;;;;;;;5488279;25;20007;-69
2024/04/14 09:48:01;;;;;;;;;;;;;;;;;;5516890;25;20375;-72
2024/04/14 09:50:27;;;;;;;;;;;;;;;;;;5470053;25;19934;-70
2024/04/14 09:52:55;;;;;;;;;;;;;;;;;;5490559;25;20316;-72
2024/04/14 09:55:20;;;;;;;;;;;;;;;;;;5491204;25;20369;-70
2024/04/14 09:57:47;;;;;;;;;;;;;;;;;;5519153;25;19942;-69
2024/04/14 10:00:12;;;;;;;;;;;;;;;;;;5514956;25;20010;-74
2024/04/14 10:02:40;;;;;;;;;;;;;;;;;;5492915;25;19927;-70
2024/04/14 10:05:09;;;;;;;;;;;;;;;;;;5483334;25;20170;-67
2024/04/14 10:07:34;;;;;;;;;;;;;;;;;;5487988;25;20381;-69
2024/04/14 10:10:00;;;;;;;;;;;;;;;;;;5483604;25;19931;-68
2024/04/14 10:12:25;;;;;;;;;;;;;;;;;;5482799;25;19956;-68
2024/04/14 10:14:54;;;;;;;;;;;;;;;;;;5487810;25;19963;-72
2024/04/14 10:17:22;;;;;;;;;;;;;;;;;;5488707;25;20007;-67
2024/04/14 10:19:52;;;;;;;;;;;;;;;;;;5492530;25;19942;-70
2024/04/14 10:22:21;;;;;;;;;;;;;;;;;;5489414;25;19974;-68
2024/04/14 10:24:49;;;;;;;;;;;;;;;;;;5485782;25;19959;-68
2024/04/14 10:27:14;;;;;;;;;;;;;;;;;;5521290;25;20429;-71
2024/04/14 10:29:39;;;;;;;;;;;;;;;;;;5462387;25;19991;-68
2024/04/14 10:32:05;;;;;;;;;;;;;;;;;;5485632;25;19938;-67
2024/04/14 10:34:33;;;;;;;;;;;;;;;;;;5485208;25;20299;-69
2024/04/14 10:36:58;;;;;;;;;;;;;;;;;;5470870;25;20031;-71
2024/04/14 10:39:31;;;;;;;;;;;;;;;;;;5517544;25;19945;-68
2024/04/14 10:41:56;;;;;;;;;;;;;;;;;;5515714;25;20252;-66
2024/04/14 10:44:21;;;;;;;;;;;;;;;;;;5463921;25;19934;-72
2024/04/14 10:46:47;;;;;;;;;;;;;;;;;;5517846;25;19958;-67
2024/04/14 10:49:12;;;;;;;;;;;;;;;;;;5467017;25;19931;-73
2024/04/14 10:51:38;;;;;;;;;;;;;;;;;;5462808;25;19943;-68
2024/04/14 10:54:06;;;;;;;;;;;;;;;;;;5516141;25;20256;-71
2024/04/14 10:56:31;;;;;;;;;;;;;;;;;;5488113;25;19927;-67
2024/04/14 10:58:57;;;;;;;;;;;;;;;;;;5480352;25;19960;-74
2024/04/14 11:01:22;;;;;;;;;;;;;;;;;;5480589;25;20386;-69
2024/04/14 11:03:47;;;;;;;;;;;;;;;;;;5491813;25;20378;-66
2024/04/14 11:06:15;;;;;;;;;;;;;;;;;;5491047;25;20335;-71
2024/04/14 11:08:41;;;;;;;;;;;;;;;;;;5492234;25;20018;-72
2024/04/14 11:11:06;;;;;;;;;;;;;;;;;;5493682;25;19938;-72
2024/04/14 11:13:31;;;;;;;;;;;;;;;;;;5489372;25;19943;-66
2024/04/14 11:15:59;;;;;;;;;;;;;;;;;;5488841;25;19941;-67
2024/04/14 11:18:24;;;;;;;;;;;;;;;;;;5496336;25;20335;-68
2024/04/14 11:20:50;;;;;;;;;;;;;;;;;;5503491;25;20501;-67
2024/04/14 11:23:15;;;;;;;;;;;;;;;;;;5493580;25;19938;-74
2024/04/14 11:25:42;;;;;;;;;;;;;;;;;;5492087;25;20535;-67
2024/04/14 11:28:08;;;;;;;;;;;;;;;;;;5521749;25;19955;-69
2024/04/14 11:30:35;;;;;;;;;;;;;;;;;;5514663;25;21081;-70
2024/04/14 11:33:03;;;;;;;;;;;;;;;;;;5516485;25;19926;-68
2024/04/14 11:35:31;;;;;;;;;;;;;;;;;;5492088;25;19943;-68
2024/04/14 11:37:56;;;;;;;;;;;;;;;;;;5482538;25;20420;-67
2024/04/14 11:40:22;;;;;;;;;;;;;;;;;;5520368;25;19935;-67
2024/04/14 11:42:47;;;;;;;;;;;;;;;;;;5489952;25;19928;-70
2024/04/14 11:45:12;;;;;;;;;;;;;;;;;;5483891;25;20282;-70
2024/04/14 11:47:38;;;;;;;;;;;;;;;;;;5463656;25;19971;-69
2024/04/14 11:50:08;;;;;;;;;;;;;;;;;;5494890;25;19927;-66
2024/04/14 11:52:34;;;;;;;;;;;;;;;;;;5521750;25;19971;-67
2024/04/14 11:54:59;;;;;;;;;;;;;;;;;;5523844;25;19954;-69
2024/04/14 11:57:27;;;;;;;;;;;;;;;;;;5494519;25;19935;-67
2024/04/14 11:59:55;;;;;;;;;;;;;;;;;;5489691;25;20656;-67
2024/04/14 12:02:26;;;;;;;;;;;;;;;;;;5492798;25;20363;-71
2024/04/14 12:04:51;;;;;;;;;;;;;;;;;;5482299;25;19942;-73
2024/04/14 12:07:17;;;;;;;;;;;;;;;;;;5485399;25;19936;-69
2024/04/14 12:09:42;;;;;;;;;;;;;;;;;;5482917;25;19984;-67
2024/04/14 12:12:10;;;;;;;;;;;;;;;;;;5465452;25;20247;-68
2024/04/14 12:14:35;;;;;;;;;;;;;;;;;;5484124;25;19935;-68
2024/04/14 12:17:03;;;;;;;;;;;;;;;;;;5483387;25;19942;-68
2024/04/14 12:19:28;;;;;;;;;;;;;;;;;;5481852;25;20355;-68
2024/04/14 12:21:56;;;;;;;;;;;;;;;;;;5483578;25;20008;-70
2024/04/14 12:24:21;;;;;;;;;;;;;;;;;;5482985;25;19934;-71
2024/04/14 12:26:47;;;;;;;;;;;;;;;;;;5482897;25;19951;-70
2024/04/14 12:29:12;;;;;;;;;;;;;;;;;;5483332;25;19935;-70
2024/04/14 12:31:40;;;;;;;;;;;;;;;;;;5458434;25;20062;-70
2024/04/14 12:34:05;;;;;;;;;;;;;;;;;;5487485;25;19934;-68
2024/04/14 12:36:30;;;;;;;;;;;;;;;;;;5480297;25;19967;-68
2024/04/14 12:38:56;;;;;;;;;;;;;;;;;;5486295;25;19935;-69
2024/04/14 12:41:23;;;;;;;;;;;;;;;;;;5482348;25;21341;-69
2024/04/14 12:43:49;;;;;;;;;;;;;;;;;;5481833;25;19966;-68
2024/04/14 12:46:17;;;;;;;;;;;;;;;;;;5478392;25;19956;-68
2024/04/14 12:48:46;;;;;;;;;;;;;;;;;;5481935;25;19942;-69
2024/04/14 12:51:11;;;;;;;;;;;;;;;;;;5480519;25;19936;-68
2024/04/14 12:53:39;;;;;;;;;;;;;;;;;;5482711;25;19942;-69
2024/04/14 12:56:04;;;;;;;;;;;;;;;;;;5482867;25;19927;-72
2024/04/14 12:58:30;;;;;;;;;;;;;;;;;;5482183;25;19943;-69
2024/04/14 13:00:59;;;;;;;;;;;;;;;;;;5477119;25;20509;-69
2024/04/14 13:03:27;;;;;;;;;;;;;;;;;;5486982;25;19939;-70
2024/04/14 13:05:58;;;;;;;;;;;;;;;;;;5482434;25;19941;-70
2024/04/14 13:08:26;;;;;;;;;;;;;;;;;;5478409;25;19947;-71
2024/04/14 13:10:51;;;;;;;;;;;;;;;;;;5481595;25;20073;-68
2024/04/14 13:13:19;;;;;;;;;;;;;;;;;;5480805;25;20543;-70
2024/04/14 13:15:47;;;;;;;;;;;;;;;;;;5482191;25;19936;-68
2024/04/14 13:18:12;;;;;;;;;;;;;;;;;;5480086;25;20402;-70
2024/04/14 13:20:40;;;;;;;;;;;;;;;;;;5487119;25;19943;-70
2024/04/14 13:23:05;;;;;;;;;;;;;;;;;;5483765;25;19932;-72
2024/04/14 13:25:31;;;;;;;;;;;;;;;;;;5482247;25;20467;-69
2024/04/14 13:27:58;;;;;;;;;;;;;;;;;;5483722;25;20348;-69
2024/04/14 13:30:24;;;;;;;;;;;;;;;;;;5481318;25;19927;-67
2024/04/14 13:32:49;;;;;;;;;;;;;;;;;;5484010;25;20005;-69
2024/04/14 13:35:17;;;;;;;;;;;;;;;;;;5478297;25;20264;-68
2024/04/14 13:37:42;;;;;;;;;;;;;;;;;;5486615;25;19935;-70
2024/04/14 13:40:10;;;;;;;;;;;;;;;;;;5481502;25;20776;-66
2024/04/14 13:42:35;;;;;;;;;;;;;;;;;;5483063;25;20236;-72
2024/04/14 13:45:00;;;;;;;;;;;;;;;;;;5478873;25;19996;-67
2024/04/14 13:47:26;;;;;;;;;;;;;;;;;;5479755;25;19935;-66
2024/04/14 13:49:51;;;;;;;;;;;;;;;;;;5486183;25;19928;-66
2024/04/14 13:52:17;;;;;;;;;;;;;;;;;;5458536;25;19951;-68
2024/04/14 13:54:45;;;;;;;;;;;;;;;;;;5460577;25;20010;-68
2024/04/14 13:57:10;;;;;;;;;;;;;;;;;;5486238;25;19960;-67
2024/04/14 13:59:35;;;;;;;;;;;;;;;;;;5477312;25;19935;-68
2024/04/14 14:02:03;;;;;;;;;;;;;;;;;;5481224;25;20345;-67
2024/04/14 14:04:28;;;;;;;;;;;;;;;;;;5475930;25;19935;-68
2024/04/14 14:06:55;;;;;;;;;;;;;;;;;;5483326;25;20232;-69
2024/04/14 14:09:20;;;;;;;;;;;;;;;;;;5481642;25;19943;-68
2024/04/14 14:11:48;;;;;;;;;;;;;;;;;;5480176;25;20463;-69
2024/04/14 14:14:16;;;;;;;;;;;;;;;;;;5480152;25;22037;-68
2024/04/14 14:16:41;;;;;;;;;;;;;;;;;;5485170;25;19995;-67
2024/04/14 14:19:10;;;;;;;;;;;;;;;;;;5490065;25;20335;-68
2024/04/14 14:21:35;;;;;;;;;;;;;;;;;;5480740;25;19943;-68
2024/04/14 14:24:05;;;;;;;;;;;;;;;;;;5453941;25;20738;-66
2024/04/14 14:26:30;;;;;;;;;;;;;;;;;;5485598;25;21119;-70
2024/04/14 14:28:58;;;;;;;;;;;;;;;;;;5482103;25;20045;-67
2024/04/14 14:31:27;;;;;;;;;;;;;;;;;;5485205;25;20433;-68
2024/04/14 14:36:38;;;;;;;;;;;;;;;;;;5478133;25;19936;-69
2024/04/14 14:39:06;;;;;;;;;;;;;;;;;;5456040;25;20014;-68
2024/04/14 14:41:32;;;;;;;;;;;;;;;;;;5479733;25;20425;-69
2024/04/14 14:44:00;;;;;;;;;;;;;;;;;;5483902;25;19938;-68
2024/04/14 14:46:26;;;;;;;;;;;;;;;;;;5478162;25;20877;-67
2024/04/14 14:48:54;;;;;;;;;;;;;;;;;;5481311;25;19947;-69
2024/04/14 14:51:19;;;;;;;;;;;;;;;;;;5480383;25;19928;-68
2024/04/14 14:53:49;;;;;;;;;;;;;;;;;;5483864;25;20754;-67
2024/04/14 14:59:16;;;;;;;;;;;;;;;;;;5388809;21;20000;-85
2024/04/14 15:01:42;;;;;;;;;;;;;;;;;;5339086;26;19938;-85
2024/04/14 15:04:07;;;;;;;;;;;;;;;;;;5281559;26;19945;-86
2024/04/14 15:06:32;;;;;;;;;;;;;;;;;;5312560;26;19949;-89
2024/04/14 15:08:58;;;;;;;;;;;;;;;;;;5338979;26;19930;-88
2024/04/14 15:11:29;;;;;;;;;;;;;;;;;;5311532;26;19950;-87
2024/04/14 15:13:56;;;;;;;;;;;;;;;;;;5320701;26;20029;-84
2024/04/14 15:16:21;;;;;;;;;;;;;;;;;;5290612;26;20349;-85
2024/04/14 15:18:49;;;;;;;;;;;;;;;;;;5293707;26;19953;-86
2024/04/14 15:21:51;;;;;;;;;;;;;;;;;;5338211;26;19981;-83
2024/04/14 15:24:20;;;;;;;;;;;;;;;;;;5281216;26;21106;-85
2024/04/14 15:26:51;;;;;;;;;;;;;;;;;;5337394;26;19942;-86
2024/04/14 15:29:17;;;;;;;;;;;;;;;;;;5317643;26;20601;-87
2024/04/14 15:31:42;;;;;;;;;;;;;;;;;;5289237;26;19959;-85
2024/04/14 15:34:10;;;;;;;;;;;;;;;;;;5314120;26;21150;-84
2024/04/14 15:36:36;;;;;;;;;;;;;;;;;;5324694;26;19962;-84
2024/04/14 15:39:06;;;;;;;;;;;;;;;;;;5343085;26;19937;-85
2024/04/14 15:41:32;;;;;;;;;;;;;;;;;;5323429;26;19930;-87
2024/04/14 15:43:57;;;;;;;;;;;;;;;;;;5343703;26;20394;-84
2024/04/14 15:46:28;;;;;;;;;;;;;;;;;;5341693;26;19953;-83
2024/04/14 15:48:53;;;;;;;;;;;;;;;;;;5341965;26;19931;-84
2024/04/14 15:51:19;;;;;;;;;;;;;;;;;;5343341;26;19950;-84
2024/04/14 15:56:54;;;;;;;;;;;;;;;;;;5348589;26;19933;-86
2024/04/14 15:59:19;;;;;;;;;;;;;;;;;;5289937;27;19939;-84
2024/04/14 16:01:59;;;;;;;;;;;;;;;;;;5327923;26;19980;-84
2024/04/14 16:04:27;;;;;;;;;;;;;;;;;;5343684;26;19955;-84
2024/04/14 16:06:54;;;;;;;;;;;;;;;;;;5303728;26;19930;-84
2024/04/14 16:09:19;;;;;;;;;;;;;;;;;;5343617;26;19967;-84
2024/04/14 16:11:46;;;;;;;;;;;;;;;;;;5334959;26;19939;-85
2024/04/14 16:14:11;;;;;;;;;;;;;;;;;;5322067;26;19969;-82
2024/04/14 16:16:36;;;;;;;;;;;;;;;;;;5323162;26;19930;-86
2024/04/14 16:19:02;;;;;;;;;;;;;;;;;;5330538;26;20002;-85
2024/04/14 16:21:28;;;;;;;;;;;;;;;;;;5292311;27;19950;-84
2024/04/14 16:23:54;;;;;;;;;;;;;;;;;;5319704;26;20205;-84
2024/04/14 16:26:22;;;;;;;;;;;;;;;;;;5286515;27;19931;-85
2024/04/14 16:28:47;;;;;;;;;;;;;;;;;;5332168;26;19931;-84
2024/04/14 16:31:13;;;;;;;;;;;;;;;;;;5299870;26;19937;-84
2024/04/14 16:33:48;;;;;;;;;;;;;;;;;;5323411;26;19937;-82
2024/04/14 16:36:23;;;;;;;;;;;;;;;;;;5319578;26;19977;-82
2024/04/14 16:38:49;;;;;;;;;;;;;;;;;;5303885;26;19938;-84
2024/04/14 16:41:14;;;;;;;;;;;;;;;;;;5321947;26;19935;-82
2024/04/14 16:43:43;;;;;;;;;;;;;;;;;;5334558;26;19930;-85
2024/04/14 16:46:10;;;;;;;;;;;;;;;;;;5316782;26;19958;-85
2024/04/14 16:48:50;;;;;;;;;;;;;;;;;;5346865;26;20042;-84
2024/04/14 16:51:19;;;;;;;;;;;;;;;;;;5317504;26;19954;-83
2024/04/14 16:53:47;;;;;;;;;;;;;;;;;;5311571;26;20075;-85
2024/04/14 16:56:14;;;;;;;;;;;;;;;;;;5290048;26;20041;-85
2024/04/14 16:58:48;;;;;;;;;;;;;;;;;;5312027;26;20042;-88
2024/04/14 17:01:14;;;;;;;;;;;;;;;;;;5305156;26;19931;-84
2024/04/14 17:03:39;;;;;;;;;;;;;;;;;;5322482;26;19982;-83
2024/04/14 17:06:27;;;;;;;;;;;;;;;;;;;;;
2024/04/14 17:09:00;;;;;;;;;;;;;;;;;;5310624;27;19931;-85
2024/04/14 17:11:25;;;;;;;;;;;;;;;;;;5335193;26;20337;-85
2024/04/14 17:13:50;;;;;;;;;;;;;;;;;;5321527;27;19931;-85
2024/04/14 17:16:16;;;;;;;;;;;;;;;;;;5350156;26;20054;-86
2024/04/14 17:18:44;;;;;;;;;;;;;;;;;;5318807;26;19930;-84
2024/04/14 17:21:12;;;;;;;;;;;;;;;;;;5323946;26;19939;-86
2024/04/14 17:23:37;;;;;;;;;;;;;;;;;;5305766;26;19936;-84